Time;durP1;ratioP1;P1;durP2;ratioP2;P2;SDS_P1;SDS_P2;PMS_P1;PMS_P2;Temp;Humidity;BMP_temperature;BMP_pressure;BME280_temperature;BME280_humidity;BME280_pressure;Samples;Min_cycle;Max_cycle;Signal;HPM_P1;HPM_P2
2021/08/20 00:02:01;;;;;;;22.42;13.55;;;;;;;17.65;68.85;100581.62;1612775;85;25827;-79
2021/08/20 00:04:29;;;;;;;16.60;12.68;;;;;;;17.63;69.04;100589.16;1660068;83;25768;-79
2021/08/20 00:06:55;;;;;;;23.92;15.00;;;;;;;17.59;69.30;100590.69;1631419;85;25936;-79
2021/08/20 00:09:23;;;;;;;21.07;13.20;;;;;;;17.56;69.45;100587.59;1620806;85;27673;-79
2021/08/20 00:11:50;;;;;;;19.57;13.05;;;;;;;17.52;69.62;100593.19;1660982;83;25859;-79
2021/08/20 00:14:17;;;;;;;23.45;12.50;;;;;;;17.48;69.83;100585.20;1667114;85;25857;-78
2021/08/20 00:16:44;;;;;;;21.68;14.33;;;;;;;17.45;69.78;100590.55;1685265;83;26592;-79
2021/08/20 00:19:12;;;;;;;22.10;13.60;;;;;;;17.44;69.95;100591.62;1619237;85;25885;-79
2021/08/20 00:21:40;;;;;;;14.43;11.43;;;;;;;17.40;70.01;100593.66;1639000;85;27224;-79
2021/08/20 00:24:08;;;;;;;13.95;11.12;;;;;;;17.39;70.20;100591.48;1667441;85;25296;-78
2021/08/20 00:26:35;;;;;;;14.60;11.43;;;;;;;17.35;70.27;100593.52;1636029;85;25759;-79
2021/08/20 00:29:02;;;;;;;13.15;11.08;;;;;;;17.31;70.30;100587.75;1652878;83;25997;-79
2021/08/20 00:31:30;;;;;;;12.65;11.33;;;;;;;17.31;70.39;100588.27;1636668;85;25809;-79
2021/08/20 00:34:00;;;;;;;12.53;10.63;;;;;;;17.30;70.30;100589.34;1658866;84;27275;-78
2021/08/20 00:36:27;;;;;;;12.73;11.25;;;;;;;17.27;70.37;100595.20;1663721;85;25351;-79
2021/08/20 00:38:54;;;;;;;15.35;12.23;;;;;;;17.24;70.37;100595.66;1661761;85;26046;-79
2021/08/20 00:41:21;;;;;;;22.70;14.50;;;;;;;17.21;70.45;100588.02;1660186;85;25921;-78
2021/08/20 00:43:48;;;;;;;21.33;14.95;;;;;;;17.19;70.60;100588.25;1607815;85;26091;-79
2021/08/20 00:46:15;;;;;;;18.42;12.13;;;;;;;17.17;70.59;100586.83;1636143;85;27539;-79
2021/08/20 00:48:42;;;;;;;15.70;11.43;;;;;;;17.15;70.74;100594.34;1654768;85;25789;-79
2021/08/20 00:51:17;;;;;;;14.70;11.55;;;;;;;17.12;70.78;100598.34;1634217;85;26515;-80
2021/08/20 00:53:46;;;;;;;20.25;12.00;;;;;;;17.09;70.77;100591.18;1608234;86;26381;-79
2021/08/20 00:56:13;;;;;;;15.25;11.22;;;;;;;17.05;70.93;100591.34;1659507;85;25311;-79
2021/08/20 00:58:41;;;;;;;13.15;10.85;;;;;;;17.01;70.77;100590.16;1655270;84;28256;-78
2021/08/20 01:01:09;;;;;;;18.00;14.80;;;;;;;16.98;70.81;100594.69;1616821;85;26586;-79
2021/08/20 01:03:38;;;;;;;20.68;15.43;;;;;;;16.92;70.86;100589.64;1619179;85;25941;-79
2021/08/20 01:06:06;;;;;;;21.33;14.25;;;;;;;16.90;71.23;100593.11;1663042;85;25853;-79
2021/08/20 01:08:36;;;;;;;15.70;12.73;;;;;;;16.87;71.28;100592.23;1661273;85;25622;-79
2021/08/20 01:11:08;;;;;;;24.98;12.13;;;;;;;16.84;71.25;100594.85;1652888;85;28253;-79
2021/08/20 01:13:39;;;;;;;13.55;11.73;;;;;;;16.83;71.44;100589.65;1611780;86;25773;-79
2021/08/20 01:16:07;;;;;;;14.85;11.90;;;;;;;16.79;71.22;100589.80;1664378;85;25861;-79
2021/08/20 01:18:37;;;;;;;14.50;11.05;;;;;;;16.74;71.34;100591.84;1655692;85;26421;-79
2021/08/20 01:21:10;;;;;;;14.38;11.00;;;;;;;16.71;71.44;100590.13;1642518;85;25884;-79
2021/08/20 01:23:39;;;;;;;14.35;12.07;;;;;;;16.67;71.37;100587.05;1618589;85;27278;-78
2021/08/20 01:26:07;;;;;;;13.90;11.12;;;;;;;16.61;71.57;100591.19;1665940;85;26105;-79
2021/08/20 01:28:34;;;;;;;14.13;11.97;;;;;;;16.58;71.59;100602.45;1660454;85;25917;-79
2021/08/20 01:31:09;;;;;;;14.18;11.73;;;;;;;16.53;71.80;100603.12;1632625;86;26527;-79
2021/08/20 01:33:37;;;;;;;16.77;12.53;;;;;;;16.49;71.82;100603.76;1583811;86;25807;-79
2021/08/20 01:36:04;;;;;;;18.57;12.53;;;;;;;16.44;72.07;100604.46;1660646;85;27444;-78
2021/08/20 01:38:34;;;;;;;17.67;11.63;;;;;;;16.41;72.26;100597.30;1662972;85;26507;-79
2021/08/20 01:41:01;;;;;;;12.53;11.18;;;;;;;16.37;72.36;100609.10;1615141;86;25861;-78
2021/08/20 01:43:29;;;;;;;12.65;10.60;;;;;;;16.34;72.49;100604.68;1610888;85;25919;-79
2021/08/20 01:45:56;;;;;;;12.33;10.98;;;;;;;16.30;72.59;100602.09;1640851;85;25821;-79
2021/08/20 01:48:23;;;;;;;15.35;10.82;;;;;;;16.26;72.58;100600.89;1671645;84;27576;-79
2021/08/20 01:50:50;;;;;;;11.95;10.70;;;;;;;16.21;72.67;100594.80;1659614;84;25330;-78
2021/08/20 01:53:17;;;;;;;11.65;10.40;;;;;;;16.18;72.64;100592.56;1604935;84;25816;-79
2021/08/20 01:59:27;;;;;;;14.13;10.60;;;;;;;16.11;72.78;100593.98;1679534;84;25793;-78
2021/08/20 02:01:54;;;;;;;14.35;11.18;;;;;;;16.05;72.97;100594.04;1652763;85;28265;-78
2021/08/20 02:04:24;;;;;;;14.00;11.45;;;;;;;16.02;73.09;100591.77;1627208;85;26583;-78
2021/08/20 02:06:51;;;;;;;12.90;10.63;;;;;;;15.97;73.19;100584.88;1637263;85;26839;-78
2021/08/20 02:09:19;;;;;;;11.80;10.53;;;;;;;15.95;73.37;100585.63;1593575;85;26468;-78
2021/08/20 02:11:47;;;;;;;15.23;10.93;;;;;;;15.89;73.40;100580.56;1669550;85;25587;-78
2021/08/20 02:14:14;;;;;;;10.78;9.55;;;;;;;15.88;73.58;100579.44;1667719;85;27522;-78
2021/08/20 02:16:42;;;;;;;11.80;10.58;;;;;;;15.85;73.54;100579.36;1634487;85;25908;-78
2021/08/20 02:19:10;;;;;;;12.68;10.30;;;;;;;15.81;73.32;100582.20;1640390;85;25998;-78
2021/08/20 02:21:39;;;;;;;11.85;10.65;;;;;;;15.75;73.31;100591.70;1669723;85;25940;-78
2021/08/20 02:24:08;;;;;;;16.27;11.48;;;;;;;15.73;73.59;100586.53;1665697;85;25762;-78
2021/08/20 02:26:35;;;;;;;17.90;11.38;;;;;;;15.71;73.74;100585.93;1639930;85;27536;-78
2021/08/20 02:29:02;;;;;;;14.13;11.28;;;;;;;15.71;73.94;100587.28;1641383;85;26581;-78
2021/08/20 02:31:29;;;;;;;11.45;10.00;;;;;;;15.71;73.92;100586.45;1662303;84;25806;-78
2021/08/20 02:33:57;;;;;;;14.50;11.28;;;;;;;15.69;74.12;100590.73;1654916;85;26453;-78
2021/08/20 02:36:25;;;;;;;16.27;10.98;;;;;;;15.69;74.32;100593.94;1640178;85;26560;-78
2021/08/20 02:38:53;;;;;;;13.72;10.75;;;;;;;15.67;74.44;100591.47;1656876;85;27500;-78
2021/08/20 02:41:21;;;;;;;12.50;11.20;;;;;;;15.65;74.45;100598.97;1662579;84;26569;-78
2021/08/20 02:43:49;;;;;;;14.03;10.35;;;;;;;15.63;74.29;100594.28;1666542;85;25855;-78
2021/08/20 02:46:16;;;;;;;13.38;10.65;;;;;;;15.61;74.23;100600.97;1643009;85;26238;-78
2021/08/20 02:48:43;;;;;;;13.32;11.83;;;;;;;15.59;74.45;100600.36;1620408;85;26169;-79
2021/08/20 02:51:13;;;;;;;13.55;12.05;;;;;;;15.56;74.53;100604.33;1667933;85;27360;-78
2021/08/20 02:53:42;;;;;;;13.75;12.03;;;;;;;15.57;74.70;100615.95;1642120;85;26356;-78
2021/08/20 02:56:09;;;;;;;13.43;11.63;;;;;;;15.54;74.81;100609.63;1618365;85;25861;-78
2021/08/20 02:58:47;;;;;;;13.43;11.20;;;;;;;15.52;75.08;100609.03;1640814;85;25794;-78
2021/08/20 03:01:14;;;;;;;13.72;12.00;;;;;;;15.50;75.03;100603.86;1634163;85;25896;-78
2021/08/20 03:03:41;;;;;;;14.65;12.30;;;;;;;15.49;75.19;100606.75;1659147;85;27611;-78
2021/08/20 03:06:10;;;;;;;12.70;11.40;;;;;;;15.47;75.24;100601.58;1633528;85;25793;-78
2021/08/20 03:08:38;;;;;;;14.90;12.23;;;;;;;15.46;75.47;100606.69;1635653;85;25884;-78
2021/08/20 03:11:05;;;;;;;19.70;12.15;;;;;;;15.45;75.48;100607.72;1691604;83;26018;-78
2021/08/20 03:13:33;;;;;;;16.25;13.13;;;;;;;15.44;75.69;100604.19;1656838;85;25304;-78
2021/08/20 03:16:03;;;;;;;14.03;12.18;;;;;;;15.46;75.97;100605.34;1638072;85;27512;-78
2021/08/20 03:18:31;;;;;;;14.83;12.58;;;;;;;15.46;76.12;100605.34;1631056;84;25822;-78
2021/08/20 03:20:58;;;;;;;16.12;13.35;;;;;;;15.42;76.21;100604.06;1659314;85;25880;-78
2021/08/20 03:23:30;;;;;;;16.97;13.70;;;;;;;15.40;76.53;100601.59;1664704;85;26722;-78
2021/08/20 03:25:57;;;;;;;15.20;13.05;;;;;;;15.39;76.58;100601.81;1637755;85;26715;-80
2021/08/20 03:28:25;;;;;;;15.15;13.55;;;;;;;15.40;76.60;100610.20;1661826;85;27517;-78
2021/08/20 03:30:59;;;;;;;16.12;13.03;;;;;;;15.40;76.71;100603.45;1666425;85;26611;-78
2021/08/20 03:33:26;;;;;;;14.15;12.45;;;;;;;15.39;76.69;100602.66;1659769;85;25806;-78
2021/08/20 03:35:55;;;;;;;15.58;12.80;;;;;;;15.39;76.70;100604.52;1639247;85;25864;-78
2021/08/20 03:38:22;;;;;;;15.63;13.10;;;;;;;15.39;76.72;100605.35;1605454;85;25366;-78
2021/08/20 03:40:50;;;;;;;17.10;13.38;;;;;;;15.38;76.69;100600.98;1638863;85;27544;-79
2021/08/20 03:43:19;;;;;;;15.88;12.50;;;;;;;15.38;76.79;100604.20;1634791;85;25847;-78
2021/08/20 03:45:48;;;;;;;13.93;12.28;;;;;;;15.36;76.83;100596.84;1660295;85;25933;-78
2021/08/20 03:48:20;;;;;;;14.05;12.55;;;;;;;15.34;76.86;100598.94;1638158;86;26012;-78
2021/08/20 03:50:47;;;;;;;16.05;13.13;;;;;;;15.33;76.91;100598.64;1655105;85;26375;-78
2021/08/20 03:53:14;;;;;;;18.17;13.18;;;;;;;15.32;77.03;100601.86;1660881;85;27642;-78
2021/08/20 03:55:42;;;;;;;15.80;12.98;;;;;;;15.32;77.14;100592.92;1640607;86;25994;-78
2021/08/20 03:58:28;;;;;;;13.83;11.93;;;;;;;15.32;77.15;100595.63;1596325;88;25852;-77
2021/08/20 04:00:56;;;;;;;16.97;12.23;;;;;;;15.32;77.33;100596.97;1575692;90;26542;-78
2021/08/20 04:03:25;;;;;;;14.95;12.75;;;;;;;15.32;77.47;100593.77;1649623;83;26601;-78
2021/08/20 04:05:54;;;;;;;15.18;13.32;;;;;;;15.32;77.46;100588.88;1644289;83;28198;-78
2021/08/20 04:08:23;;;;;;;15.55;13.28;;;;;;;15.33;77.57;100584.60;1691177;81;25806;-77
2021/08/20 04:10:52;;;;;;;18.57;13.38;;;;;;;15.36;77.71;100590.09;1694898;83;25883;-78
2021/08/20 04:13:40;;;;;;;15.38;13.22;;;;;;;15.37;77.73;100583.66;1712300;82;25957;-78
2021/08/20 04:16:08;;;;;;;15.88;13.58;;;;;;;15.36;77.77;100581.48;1729541;81;25945;-78
2021/08/20 04:18:35;;;;;;;17.95;13.20;;;;;;;15.35;77.96;100581.16;1699585;81;28064;-78
2021/08/20 04:21:02;;;;;;;16.90;13.58;;;;;;;15.36;77.95;100583.34;1666940;83;25902;-78
2021/08/20 04:23:29;;;;;;;17.25;13.83;;;;;;;15.39;78.11;100586.97;1715452;82;26622;-78
2021/08/20 04:25:58;;;;;;;16.23;13.83;;;;;;;15.40;78.17;100582.70;1687256;83;25814;-78
2021/08/20 04:28:33;;;;;;;17.92;14.55;;;;;;;15.43;78.32;100591.75;1700755;83;26210;-77
2021/08/20 04:31:08;;;;;;;15.10;13.45;;;;;;;15.48;78.36;100592.97;1675033;83;27451;-78
2021/08/20 04:33:45;;;;;;;14.75;13.08;;;;;;;15.51;78.58;100590.64;1628572;86;25844;-78
2021/08/20 04:36:31;;;;;;;16.15;14.43;;;;;;;15.55;78.63;100597.26;1678618;83;26440;-78
2021/08/20 04:39:17;;;;;;;16.00;13.68;;;;;;;15.62;79.16;100601.26;1690324;83;25859;-78
2021/08/20 04:41:46;;;;;;;19.23;13.95;;;;;;;15.65;79.17;100600.83;1665864;83;25412;-78
2021/08/20 04:44:25;;;;;;;16.57;14.53;;;;;;;15.72;79.47;100605.12;1713282;82;27719;-77
2021/08/20 04:46:56;;;;;;;19.62;16.07;;;;;;;15.79;79.85;100613.17;1716565;80;25615;-78
2021/08/20 04:49:25;;;;;;;18.17;14.07;;;;;;;15.84;80.18;100614.19;1683756;83;25947;-78
2021/08/20 04:52:11;;;;;;;19.57;14.68;;;;;;;15.87;80.05;100615.59;1706282;83;26180;-78
2021/08/20 04:54:46;;;;;;;19.25;15.32;;;;;;;15.92;80.46;100613.06;1694982;81;26009;-78
2021/08/20 04:57:13;;;;;;;18.55;14.55;;;;;;;15.99;80.83;100606.58;1691429;83;27572;-78
2021/08/20 04:59:40;;;;;;;21.05;15.78;;;;;;;16.06;80.75;100607.32;1698036;83;25841;-78
2021/08/20 05:02:07;;;;;;;20.23;15.25;;;;;;;16.11;80.80;100611.55;1663287;83;25898;-78
2021/08/20 05:04:36;;;;;;;18.05;14.45;;;;;;;16.16;80.74;100619.82;1715677;83;25790;-78
2021/08/20 05:07:05;;;;;;;16.23;14.53;;;;;;;16.21;80.87;100621.83;1689395;83;25978;-78
2021/08/20 05:09:33;;;;;;;21.40;15.58;;;;;;;16.28;80.97;100625.82;1691397;83;27411;-78
2021/08/20 05:12:01;;;;;;;16.73;13.85;;;;;;;16.33;81.08;100623.28;1669070;83;25884;-78
2021/08/20 05:14:28;;;;;;;17.10;13.65;;;;;;;16.36;81.09;100616.89;1712314;83;25604;-79
2021/08/20 05:16:55;;;;;;;21.42;16.15;;;;;;;16.43;81.23;100630.34;1726203;80;26139;-78
2021/08/20 05:19:22;;;;;;;17.82;15.48;;;;;;;16.48;81.35;100623.75;1690733;83;25868;-79
2021/08/20 05:21:49;;;;;;;16.12;14.43;;;;;;;16.54;81.50;100629.64;1696658;83;27474;-78
2021/08/20 05:24:16;;;;;;;16.82;14.53;;;;;;;16.58;81.53;100624.08;1712542;81;25813;-78
2021/08/20 05:26:44;;;;;;;18.55;15.08;;;;;;;16.63;81.49;100627.78;1684063;83;25886;-79
2021/08/20 05:29:11;;;;;;;17.80;14.47;;;;;;;16.69;81.61;100622.81;1666478;83;25911;-79
2021/08/20 05:31:38;;;;;;;17.57;14.10;;;;;;;16.75;81.60;100619.72;1697343;81;25790;-79
2021/08/20 05:34:05;;;;;;;14.60;13.05;;;;;;;16.78;81.70;100616.58;1685222;83;28341;-78
2021/08/20 05:36:32;;;;;;;15.38;13.68;;;;;;;16.80;81.69;100618.01;1698513;82;25870;-79
2021/08/20 05:38:59;;;;;;;16.70;14.18;;;;;;;16.82;81.66;100622.66;1698141;82;25933;-78
2021/08/20 05:41:26;;;;;;;15.53;13.05;;;;;;;16.86;81.70;100622.50;1666989;83;26602;-79
2021/08/20 05:43:53;;;;;;;16.12;12.65;;;;;;;16.91;81.64;100624.53;1720950;81;25802;-79
2021/08/20 05:46:20;;;;;;;15.30;12.63;;;;;;;16.96;81.72;100619.25;1698617;83;27431;-79
2021/08/20 05:48:47;;;;;;;16.85;13.68;;;;;;;17.03;81.75;100628.12;1683332;83;26673;-79
2021/08/20 05:51:14;;;;;;;15.25;12.33;;;;;;;17.08;81.75;100624.21;1698862;82;26460;-78
2021/08/20 05:53:42;;;;;;;15.85;12.98;;;;;;;17.13;81.66;100630.30;1709163;82;26482;-78
2021/08/20 05:56:09;;;;;;;16.67;12.90;;;;;;;17.17;81.79;100628.78;1686588;83;25338;-78
2021/08/20 05:58:36;;;;;;;15.25;12.85;;;;;;;17.22;81.67;100630.25;1699117;81;27656;-78
2021/08/20 06:01:03;;;;;;;20.60;12.98;;;;;;;17.26;81.71;100624.16;1689855;82;25859;-79
2021/08/20 06:03:30;;;;;;;15.15;12.63;;;;;;;17.32;81.68;100630.55;1712403;82;25733;-79
2021/08/20 06:05:59;;;;;;;14.07;12.23;;;;;;;17.37;81.83;100622.55;1686991;81;26558;-77
2021/08/20 06:08:26;;;;;;;14.93;12.25;;;;;;;17.42;81.68;100621.34;1663499;83;25775;-78
2021/08/20 06:10:54;;;;;;;12.95;11.40;;;;;;;17.46;81.70;100624.70;1664684;83;27720;-78
2021/08/20 06:13:21;;;;;;;16.50;12.90;;;;;;;17.53;81.62;100632.25;1690293;83;26013;-78
2021/08/20 06:15:48;;;;;;;16.97;12.63;;;;;;;17.59;81.49;100625.90;1687140;83;25781;-78
2021/08/20 06:18:15;;;;;;;15.03;12.25;;;;;;;17.65;81.40;100629.03;1687675;83;26646;-79
2021/08/20 06:20:42;;;;;;;16.12;12.05;;;;;;;17.71;81.53;100634.03;1698785;83;25278;-79
2021/08/20 06:23:09;;;;;;;14.95;11.97;;;;;;;17.76;81.53;100635.53;1647976;83;28276;-79
2021/08/20 06:25:36;;;;;;;14.58;11.93;;;;;;;17.80;81.28;100638.59;1685610;83;25882;-79
2021/08/20 06:28:03;;;;;;;14.55;12.50;;;;;;;17.81;81.27;100637.03;1669174;83;25835;-78
2021/08/20 06:30:31;;;;;;;20.25;14.25;;;;;;;17.84;81.25;100643.31;1674258;83;27023;-79
2021/08/20 06:32:58;;;;;;;20.62;15.00;;;;;;;17.86;81.15;100635.78;1714437;82;25813;-79
2021/08/20 06:35:25;;;;;;;18.32;14.83;;;;;;;17.87;81.09;100637.44;1720762;81;28134;-79
2021/08/20 06:37:52;;;;;;;19.40;13.32;;;;;;;17.90;81.02;100645.09;1675944;83;25829;-79
2021/08/20 06:40:19;;;;;;;16.27;11.70;;;;;;;17.90;80.84;100646.45;1726187;81;26477;-78
2021/08/20 06:42:46;;;;;;;13.20;10.80;;;;;;;17.90;80.73;100651.86;1706937;82;25842;-78
2021/08/20 06:45:13;;;;;;;13.18;11.55;;;;;;;17.91;80.79;100660.30;1727846;81;26469;-79
2021/08/20 06:47:41;;;;;;;11.28;9.85;;;;;;;17.97;80.83;100670.20;1701821;81;27475;-78
2021/08/20 06:50:09;;;;;;;11.63;10.43;;;;;;;18.02;80.67;100675.77;1675136;83;25798;-79
2021/08/20 06:52:38;;;;;;;13.65;11.50;;;;;;;18.06;80.57;100674.76;1712875;81;26486;-79
2021/08/20 06:55:06;;;;;;;15.65;11.68;;;;;;;18.06;80.41;100672.05;1732767;81;25837;-78
2021/08/20 06:57:33;;;;;;;15.38;11.95;;;;;;;18.05;80.32;100667.16;1680830;83;25984;-79
2021/08/20 07:00:00;;;;;;;15.03;11.33;;;;;;;18.09;80.36;100660.75;1672174;83;27766;-79
2021/08/20 07:02:28;;;;;;;16.17;12.20;;;;;;;18.14;80.26;100667.63;1710455;82;25808;-79
2021/08/20 07:04:55;;;;;;;17.55;12.23;;;;;;;18.17;80.39;100667.17;1686896;83;25873;-79
2021/08/20 07:07:22;;;;;;;21.12;12.10;;;;;;;18.23;80.70;100664.35;1691555;83;25883;-79
2021/08/20 07:09:49;;;;;;;18.55;11.83;;;;;;;18.32;80.72;100668.90;1664138;84;25771;-78
2021/08/20 07:12:16;;;;;;;15.88;11.45;;;;;;;18.40;80.80;100668.54;1710508;83;27403;-79
2021/08/20 07:14:43;;;;;;;11.50;10.05;;;;;;;18.48;80.89;100669.04;1658509;83;26039;-78
2021/08/20 07:17:10;;;;;;;17.67;11.30;;;;;;;18.56;80.56;100667.04;1667601;83;25778;-79
2021/08/20 07:19:37;;;;;;;13.28;10.95;;;;;;;18.61;80.13;100666.61;1690340;83;26610;-78
2021/08/20 07:22:04;;;;;;;12.55;10.10;;;;;;;18.63;79.95;100669.08;1719281;83;25765;-78
2021/08/20 07:24:31;;;;;;;14.00;10.93;;;;;;;18.67;79.88;100665.66;1692609;83;28138;-78
2021/08/20 07:26:58;;;;;;;12.13;10.72;;;;;;;18.74;79.81;100662.81;1680022;81;25934;-78
2021/08/20 07:29:25;;;;;;;13.05;10.88;;;;;;;18.81;79.99;100673.02;1686050;81;26465;-78
2021/08/20 07:31:52;;;;;;;13.75;10.72;;;;;;;18.85;79.57;100666.88;1717518;81;25955;-79
2021/08/20 07:34:19;;;;;;;14.40;10.50;;;;;;;18.88;79.20;100675.88;1683939;83;26112;-78
2021/08/20 07:36:46;;;;;;;13.40;10.25;;;;;;;18.89;79.03;100669.41;1645308;81;27582;-78
2021/08/20 07:39:14;;;;;;;12.60;9.35;;;;;;;18.96;79.24;100669.28;1694768;83;25967;-80
2021/08/20 07:41:41;;;;;;;14.73;10.08;;;;;;;19.02;79.22;100669.67;1666091;81;25811;-79
2021/08/20 07:44:13;;;;;;;11.88;10.00;;;;;;;19.07;78.95;100669.26;1691581;83;25787;-78
2021/08/20 07:46:36;;;;;;;14.23;10.90;;;;;;;19.13;79.24;100672.36;1717489;81;25827;-79
2021/08/20 07:49:03;;;;;;;13.35;9.90;;;;;;;19.18;78.63;100678.44;1704001;82;28281;-79
2021/08/20 07:51:30;;;;;;;11.83;9.50;;;;;;;19.24;78.67;100679.66;1664631;83;26007;-79
2021/08/20 07:53:57;;;;;;;12.47;8.65;;;;;;;19.28;78.53;100677.27;1723486;81;26310;-79
2021/08/20 07:56:25;;;;;;;12.00;9.73;;;;;;;19.36;78.68;100677.44;1718740;81;26008;-79
2021/08/20 07:58:52;;;;;;;10.48;9.38;;;;;;;19.42;78.23;100682.73;1656622;81;25840;-79
2021/08/20 08:01:19;;;;;;;12.82;10.53;;;;;;;19.47;78.16;100686.08;1683548;83;28201;-79
2021/08/20 08:03:47;;;;;;;11.63;9.43;;;;;;;19.50;77.52;100681.53;1698732;83;25900;-79
2021/08/20 08:06:14;;;;;;;14.05;11.12;;;;;;;19.51;77.93;100687.23;1697285;83;25843;-78
2021/08/20 08:08:41;;;;;;;15.05;11.25;;;;;;;19.57;78.09;100693.05;1701293;81;26704;-79
2021/08/20 08:11:09;;;;;;;18.32;13.25;;;;;;;19.61;77.86;100683.38;1644647;83;26584;-79
2021/08/20 08:13:37;;;;;;;10.63;9.48;;;;;;;19.64;77.55;100682.88;1721279;81;28176;-79
2021/08/20 08:16:05;;;;;;;10.18;9.13;;;;;;;19.66;77.14;100682.09;1721744;81;25929;-79
2021/08/20 08:18:32;;;;;;;13.70;8.53;;;;;;;19.66;77.05;100680.20;1643275;82;25916;-79
2021/08/20 08:20:59;;;;;;;12.60;8.58;;;;;;;19.81;77.29;100682.37;1669073;83;26444;-79
2021/08/20 08:23:27;;;;;;;10.15;9.05;;;;;;;20.04;77.78;100670.55;1713238;81;25874;-79
2021/08/20 08:25:54;;;;;;;10.43;8.33;;;;;;;20.21;77.41;100678.20;1722062;81;28190;-79
2021/08/20 08:28:22;;;;;;;11.57;8.38;;;;;;;20.40;77.10;100676.30;1730779;81;26640;-79
2021/08/20 08:30:50;;;;;;;12.73;7.97;;;;;;;20.62;77.06;100670.39;1684807;81;26110;-79
2021/08/20 08:33:18;;;;;;;10.18;7.83;;;;;;;20.78;76.38;100672.79;1720509;81;26525;-82
2021/08/20 08:35:46;;;;;;;10.93;8.23;;;;;;;20.89;75.64;100680.56;1715733;81;25903;-78
2021/08/20 08:38:15;;;;;;;12.18;8.23;;;;;;;20.97;75.12;100678.22;1675032;83;27573;-79
2021/08/20 08:40:45;;;;;;;9.90;8.08;;;;;;;21.07;75.21;100674.81;1667864;81;25868;-77
2021/08/20 08:43:14;;;;;;;11.03;8.33;;;;;;;21.20;74.92;100671.19;1735714;80;25790;-79
2021/08/20 08:45:42;;;;;;;10.58;7.95;;;;;;;21.32;74.30;100671.86;1715749;81;26534;-78
2021/08/20 08:48:13;;;;;;;8.30;7.12;;;;;;;21.51;75.15;100676.45;1643537;81;26014;-79
2021/08/20 08:50:44;;;;;;;9.68;7.65;;;;;;;21.61;73.80;100684.72;1638256;81;27171;-79
2021/08/20 08:53:11;;;;;;;8.55;7.35;;;;;;;21.73;72.85;100686.74;1720883;80;25840;-78
2021/08/20 08:55:39;;;;;;;7.58;6.87;;;;;;;21.75;72.49;100681.05;1719198;81;25363;-79
2021/08/20 08:58:07;;;;;;;9.68;8.15;;;;;;;21.76;72.57;100686.77;1714148;82;25985;-79
2021/08/20 09:00:37;;;;;;;7.85;6.67;;;;;;;21.69;71.89;100687.52;1653385;81;25849;-79
2021/08/20 09:03:05;;;;;;;9.57;7.50;;;;;;;21.60;71.72;100691.23;1722685;81;27493;-79
2021/08/20 09:05:46;;;;;;;9.90;7.20;;;;;;;21.58;71.98;100691.23;1695285;83;25844;-79
2021/08/20 09:08:19;;;;;;;7.75;6.53;;;;;;;21.53;71.14;100695.53;1671010;83;25861;-80
2021/08/20 09:10:56;;;;;;;9.83;6.83;;;;;;;21.46;71.72;100690.84;1652631;81;26475;-79
2021/08/20 09:13:24;;;;;;;8.23;6.58;;;;;;;21.51;72.05;100690.08;1718788;81;26914;-80
2021/08/20 09:16:12;;;;;;;9.95;6.60;;;;;;;21.53;71.26;100691.17;1725913;81;27413;-83
2021/08/20 09:18:41;;;;;;;9.28;6.37;;;;;;;21.56;71.26;100692.00;1727959;81;25835;-80
2021/08/20 09:21:16;;;;;;;8.85;6.25;;;;;;;21.70;71.08;100691.36;1678604;81;25732;-80
2021/08/20 09:23:45;;;;;;;22.02;7.50;;;;;;;21.86;70.96;100689.62;1731295;81;26769;-79
2021/08/20 09:26:12;;;;;;;10.82;6.80;;;;;;;21.95;70.85;100694.89;1719121;81;25919;-80
2021/08/20 09:28:39;;;;;;;18.07;7.55;;;;;;;22.01;70.44;100689.23;1676595;81;27536;-78
2021/08/20 09:31:12;;;;;;;8.23;5.58;;;;;;;22.03;69.89;100691.16;1677565;82;25889;-79
2021/08/20 09:33:50;;;;;;;8.30;6.30;;;;;;;22.05;69.15;100692.25;1722789;81;25887;-79
2021/08/20 09:36:23;;;;;;;8.05;6.12;;;;;;;22.11;69.76;100681.69;1721478;81;25758;-79
2021/08/20 09:38:56;;;;;;;9.15;6.22;;;;;;;22.22;69.41;100680.66;1674776;81;26505;-79
2021/08/20 09:41:30;;;;;;;5.83;5.20;;;;;;;22.31;69.45;100681.83;1676833;83;27350;-79
2021/08/20 09:44:03;;;;;;;5.47;4.97;;;;;;;22.42;68.04;100684.92;1718367;81;25934;-79
2021/08/20 09:46:45;;;;;;;8.40;5.72;;;;;;;22.55;68.85;100676.81;1729183;81;25923;-80
2021/08/20 09:49:16;;;;;;;6.85;5.67;;;;;;;22.58;67.83;100683.92;1684800;83;26210;-80
2021/08/20 09:51:47;;;;;;;8.58;5.80;;;;;;;22.56;67.75;100681.20;1688882;81;25941;-79
2021/08/20 09:54:25;;;;;;;7.08;4.90;;;;;;;22.53;67.54;100669.43;1723678;81;28068;-80
2021/08/20 09:56:53;;;;;;;11.48;9.55;;;;;;;22.52;67.65;100663.70;1716866;81;25940;-79
2021/08/20 09:59:22;;;;;;;8.85;6.97;;;;;;;22.51;67.53;100668.34;1691232;81;26578;-80
2021/08/20 10:01:50;;;;;;;8.85;5.83;;;;;;;22.58;67.59;100673.00;1691002;81;25832;-82
2021/08/20 10:04:18;;;;;;;11.43;6.72;;;;;;;22.59;66.55;100681.52;1717647;81;25855;-80
2021/08/20 10:06:47;;;;;;;9.28;6.30;;;;;;;22.56;66.85;100672.44;1700836;82;27463;-80
2021/08/20 10:09:17;;;;;;;9.25;6.10;;;;;;;22.56;66.55;100673.81;1681948;81;25704;-80
2021/08/20 10:11:53;;;;;;;7.62;6.25;;;;;;;22.52;65.66;100680.88;1675019;81;25387;-80
2021/08/20 10:14:23;;;;;;;10.45;5.87;;;;;;;22.49;66.11;100683.33;1756270;80;26773;-79
2021/08/20 10:16:53;;;;;;;5.78;5.17;;;;;;;22.50;65.97;100681.69;1695426;81;43662;-81
2021/08/20 10:19:21;;;;;;;10.20;5.87;;;;;;;22.60;66.56;100673.63;1673245;81;27651;-80
2021/08/20 10:21:48;;;;;;;6.28;5.58;;;;;;;22.71;66.32;100675.87;1686060;81;25840;-80
2021/08/20 10:24:15;;;;;;;8.15;5.92;;;;;;;22.79;65.92;100678.09;1707502;82;25727;-79
2021/08/20 10:26:47;;;;;;;7.12;5.78;;;;;;;22.79;65.89;100673.45;1733950;81;25872;-79
2021/08/20 10:29:15;;;;;;;8.65;5.72;;;;;;;22.81;65.78;100669.91;1736707;80;25750;-79
2021/08/20 10:31:44;;;;;;;7.50;5.47;;;;;;;22.88;66.05;100666.38;1699339;81;28243;-79
2021/08/20 10:34:33;;;;;;;8.78;5.17;;;;;;;22.91;65.04;100671.32;1696896;82;26531;-79
2021/08/20 10:37:17;;;;;;;7.12;5.33;;;;;;;22.93;65.39;100658.22;1720333;81;25833;-79
2021/08/20 10:39:47;;;;;;;7.10;5.75;;;;;;;23.08;65.38;100664.28;1698954;81;25876;-79
2021/08/20 10:42:18;;;;;;;7.53;5.42;;;;;;;23.20;64.85;100658.61;1690527;83;25337;-78
2021/08/20 10:44:51;;;;;;;7.53;4.97;;;;;;;23.34;65.51;100663.86;1669991;81;27436;-79
2021/08/20 10:47:24;;;;;;;5.78;5.12;;;;;;;23.48;64.46;100658.98;1728069;80;25787;-79
2021/08/20 10:49:54;;;;;;;6.85;5.87;;;;;;;23.48;63.16;100656.23;1683388;81;25714;-79
2021/08/20 10:52:28;;;;;;;7.33;5.63;;;;;;;23.44;63.68;100658.41;1766710;80;25905;-79
2021/08/20 10:55:02;;;;;;;7.85;5.37;;;;;;;23.43;63.74;100661.72;1733569;81;25656;-79
2021/08/20 10:57:42;;;;;;;6.58;4.65;;;;;;;23.43;64.12;100658.98;1719520;81;27941;-79
2021/08/20 11:00:25;;;;;;;7.85;4.65;;;;;;;23.47;63.93;100657.89;1699271;82;26590;-79
2021/08/20 11:02:59;;;;;;;7.80;5.47;;;;;;;23.54;63.11;100650.25;1716877;81;25937;-80
2021/08/20 11:05:49;;;;;;;5.47;4.97;;;;;;;23.59;63.00;100654.34;1687775;83;25912;-79
2021/08/20 11:08:32;;;;;;;8.77;4.83;;;;;;;23.69;62.94;100649.71;1730148;81;25697;-79
2021/08/20 11:11:01;;;;;;;8.80;5.30;;;;;;;23.73;62.04;100650.84;1690894;83;27553;-79
2021/08/20 11:13:29;;;;;;;6.00;4.70;;;;;;;23.66;61.44;100647.54;1694065;81;25849;-79
2021/08/20 11:15:56;;;;;;;7.87;5.33;;;;;;;23.63;61.98;100654.11;1714187;81;26566;-79
2021/08/20 11:18:50;;;;;;;8.30;5.40;;;;;;;23.62;61.35;100643.70;1675699;82;25906;-79
2021/08/20 11:21:45;;;;;;;4.97;4.53;;;;;;;23.65;62.26;100646.45;1718095;81;25751;-79
2021/08/20 11:24:20;;;;;;;7.05;5.33;;;;;;;23.72;61.81;100642.88;1633780;86;27368;-79
2021/08/20 11:26:48;;;;;;;9.78;5.60;;;;;;;23.80;61.88;100653.31;1646697;85;25903;-79
2021/08/20 11:29:17;;;;;;;7.95;4.95;;;;;;;23.87;61.18;100643.44;1624029;86;26705;-79